Time;durP1;ratioP1;P1;durP2;ratioP2;P2;SDS_P1;SDS_P2;PMS_P1;PMS_P2;Temp;Humidity;BMP_temperature;BMP_pressure;BME280_temperature;BME280_humidity;BME280_pressure;Samples;Min_cycle;Max_cycle;Signal;HPM_P1;HPM_P2
2022/09/29 00:00:39;;;;;;;0.70;0.70;;;;;;;;;;5053286;28;20238;-81
2022/09/29 00:03:08;;;;;;;0.60;0.60;;;;;;;;;;5047700;28;20195;-81
2022/09/29 00:05:37;;;;;;;0.70;0.70;;;;;;;;;;5033806;28;20209;-81
2022/09/29 00:08:06;;;;;;;1.20;1.20;;;;;;;;;;5033696;28;20195;-81
2022/09/29 00:10:35;;;;;;;1.73;1.47;;;;;;;;;;5063035;28;20188;-81
2022/09/29 00:13:03;;;;;;;1.80;1.70;;;;;;;;;;5027556;28;20206;-81
2022/09/29 00:15:31;;;;;;;6.07;2.83;;;;;;;;;;5038303;28;20231;-81
2022/09/29 00:18:00;;;;;;;5.07;3.07;;;;;;;;;;5030217;28;20202;-81
2022/09/29 00:20:43;;;;;;;2.60;2.40;;;;;;;;;;5052642;28;20307;-81
2022/09/29 00:23:13;;;;;;;4.97;4.07;;;;;;;;;;5034466;28;20228;-81
2022/09/29 00:25:41;;;;;;;3.50;3.30;;;;;;;;;;5034229;28;20223;-81
2022/09/29 00:28:10;;;;;;;3.70;2.50;;;;;;;;;;5033262;28;20199;-81
2022/09/29 00:30:38;;;;;;;0.87;0.87;;;;;;;;;;5037968;28;20296;-81
2022/09/29 00:33:06;;;;;;;1.73;1.63;;;;;;;;;;5052767;28;20291;-81
2022/09/29 00:35:34;;;;;;;0.70;0.70;;;;;;;;;;5032541;28;20292;-81
2022/09/29 00:38:03;;;;;;;0.60;0.60;;;;;;;;;;5026469;28;20254;-81
2022/09/29 00:40:33;;;;;;;0.80;0.80;;;;;;;;;;5051606;28;20215;-81
2022/09/29 00:43:02;;;;;;;1.03;1.03;;;;;;;;;;5039193;28;20203;-81
2022/09/29 00:45:30;;;;;;;0.80;0.80;;;;;;;;;;5053228;28;20206;-81
2022/09/29 00:48:04;;;;;;;0.70;0.70;;;;;;;;;;5051922;28;20208;-81
2022/09/29 00:50:39;;;;;;;0.63;0.63;;;;;;;;;;5032051;28;20208;-81
2022/09/29 00:53:11;;;;;;;1.50;1.43;;;;;;;;;;5052745;28;20203;-81
2022/09/29 00:55:43;;;;;;;0.60;0.60;;;;;;;;;;5046870;28;20209;-81
2022/09/29 00:58:13;;;;;;;3.90;2.13;;;;;;;;;;5051581;28;20237;-81
2022/09/29 01:00:42;;;;;;;3.87;3.53;;;;;;;;;;5048805;28;20240;-81
2022/09/29 01:03:12;;;;;;;4.60;3.63;;;;;;;;;;5047390;28;20195;-82
2022/09/29 01:05:43;;;;;;;2.03;1.93;;;;;;;;;;5043780;28;20228;-81
2022/09/29 01:08:15;;;;;;;2.90;2.23;;;;;;;;;;5032352;28;20239;-81
2022/09/29 01:10:45;;;;;;;4.03;3.67;;;;;;;;;;5020884;28;20196;-81
2022/09/29 01:13:14;;;;;;;2.40;2.30;;;;;;;;;;5047051;28;20242;-81
2022/09/29 01:15:42;;;;;;;2.47;2.33;;;;;;;;;;5043501;28;20206;-81
2022/09/29 01:18:11;;;;;;;1.03;1.03;;;;;;;;;;5032690;28;20196;-82
2022/09/29 01:20:42;;;;;;;0.70;0.70;;;;;;;;;;5041443;28;20204;-81
2022/09/29 01:23:24;;;;;;;1.47;1.37;;;;;;;;;;5024091;28;20200;-81
2022/09/29 01:26:03;;;;;;;1.93;1.87;;;;;;;;;;5049260;28;20236;-81
2022/09/29 01:28:59;;;;;;;0.87;0.87;;;;;;;;;;5051420;28;20207;-81
2022/09/29 01:31:31;;;;;;;5.03;4.07;;;;;;;;;;5008671;28;20259;-81
2022/09/29 01:34:06;;;;;;;5.50;1.73;;;;;;;;;;5047534;28;20265;-81
2022/09/29 01:36:39;;;;;;;7.73;5.03;;;;;;;;;;5045186;28;20206;-81
2022/09/29 01:39:14;;;;;;;7.10;4.80;;;;;;;;;;5020253;28;20207;-81
2022/09/29 01:41:45;;;;;;;5.53;4.67;;;;;;;;;;5046702;28;20214;-81
2022/09/29 01:44:17;;;;;;;3.30;3.00;;;;;;;;;;5068160;28;20264;-81
2022/09/29 01:46:48;;;;;;;1.13;1.13;;;;;;;;;;5052260;28;20203;-81
2022/09/29 01:49:18;;;;;;;1.17;1.17;;;;;;;;;;5068057;28;20347;-81
2022/09/29 01:51:49;;;;;;;0.73;0.73;;;;;;;;;;5046553;28;20203;-81
2022/09/29 01:54:19;;;;;;;2.07;1.97;;;;;;;;;;5048723;28;20236;-81
2022/09/29 01:56:50;;;;;;;0.93;0.93;;;;;;;;;;5038238;28;20195;-81
2022/09/29 01:59:20;;;;;;;0.70;0.70;;;;;;;;;;5038736;28;20272;-81
2022/09/29 02:01:51;;;;;;;0.70;0.70;;;;;;;;;;5054293;28;20250;-81
2022/09/29 02:04:21;;;;;;;1.20;1.20;;;;;;;;;;5037901;28;20204;-81
2022/09/29 02:06:54;;;;;;;0.70;0.70;;;;;;;;;;5040467;28;20238;-81
2022/09/29 02:09:24;;;;;;;0.90;0.90;;;;;;;;;;5023153;28;20196;-81
2022/09/29 02:11:53;;;;;;;2.20;2.10;;;;;;;;;;5039244;28;20199;-81
2022/09/29 02:14:24;;;;;;;1.10;1.10;;;;;;;;;;5027653;28;20196;-81
2022/09/29 02:16:56;;;;;;;1.17;1.17;;;;;;;;;;5026513;28;20199;-81
2022/09/29 02:19:25;;;;;;;2.60;1.70;;;;;;;;;;5051851;28;20199;-81
2022/09/29 02:21:54;;;;;;;0.70;0.70;;;;;;;;;;5048426;28;20216;-81
2022/09/29 02:24:23;;;;;;;0.80;0.80;;;;;;;;;;5056329;28;20195;-81
2022/09/29 02:26:52;;;;;;;1.33;1.33;;;;;;;;;;5055125;28;20226;-81
2022/09/29 02:29:21;;;;;;;2.00;1.77;;;;;;;;;;5054778;28;20222;-81
2022/09/29 02:31:49;;;;;;;3.57;3.37;;;;;;;;;;5054157;28;20222;-81
2022/09/29 02:34:20;;;;;;;0.90;0.90;;;;;;;;;;5047911;28;20207;-81
2022/09/29 02:36:54;;;;;;;0.70;0.70;;;;;;;;;;5048978;28;20229;-81
2022/09/29 02:39:27;;;;;;;1.57;1.57;;;;;;;;;;5054432;28;20195;-81
2022/09/29 02:42:00;;;;;;;0.70;0.70;;;;;;;;;;5041469;28;20211;-81
2022/09/29 02:44:36;;;;;;;0.70;0.70;;;;;;;;;;5054009;28;20201;-81
2022/09/29 02:47:15;;;;;;;2.37;2.20;;;;;;;;;;5054360;28;20261;-81
2022/09/29 02:49:55;;;;;;;0.80;0.80;;;;;;;;;;5053663;28;20198;-81
2022/09/29 02:52:27;;;;;;;0.70;0.70;;;;;;;;;;5054839;28;20208;-81
2022/09/29 02:54:58;;;;;;;1.40;1.40;;;;;;;;;;5041956;28;20199;-81
2022/09/29 02:57:29;;;;;;;1.13;1.13;;;;;;;;;;5053495;28;20269;-81
2022/09/29 03:00:04;;;;;;;0.80;0.80;;;;;;;;;;5053445;28;20190;-81
2022/09/29 03:02:33;;;;;;;1.67;1.67;;;;;;;;;;5071305;28;20305;-81
2022/09/29 03:05:03;;;;;;;1.57;1.47;;;;;;;;;;5048962;28;20219;-81
2022/09/29 03:07:31;;;;;;;0.70;0.70;;;;;;;;;;5046222;28;20279;-81
2022/09/29 03:09:59;;;;;;;0.60;0.60;;;;;;;;;;5029623;28;20202;-81
2022/09/29 03:12:27;;;;;;;0.70;0.70;;;;;;;;;;5053534;28;20199;-81
2022/09/29 03:14:56;;;;;;;0.70;0.70;;;;;;;;;;5053730;28;20207;-81
2022/09/29 03:17:24;;;;;;;0.73;0.73;;;;;;;;;;5040232;28;20226;-81
2022/09/29 03:19:52;;;;;;;0.80;0.80;;;;;;;;;;5062872;28;20203;-81
2022/09/29 03:22:22;;;;;;;0.67;0.67;;;;;;;;;;5047310;28;20296;-81
2022/09/29 03:24:50;;;;;;;0.70;0.70;;;;;;;;;;5043518;28;20212;-81
2022/09/29 03:27:19;;;;;;;1.37;1.17;;;;;;;;;;5039645;28;20243;-81
2022/09/29 03:29:49;;;;;;;1.27;1.27;;;;;;;;;;5044551;28;20198;-81
2022/09/29 03:32:17;;;;;;;0.80;0.80;;;;;;;;;;5049206;28;20195;-81
2022/09/29 03:34:46;;;;;;;0.90;0.90;;;;;;;;;;5035468;28;20200;-81
2022/09/29 03:37:14;;;;;;;0.80;0.80;;;;;;;;;;5040251;28;20266;-81
2022/09/29 03:39:44;;;;;;;0.80;0.80;;;;;;;;;;5052937;28;20205;-81
2022/09/29 03:42:12;;;;;;;0.60;0.60;;;;;;;;;;5035747;28;20247;-81
2022/09/29 03:44:41;;;;;;;1.63;1.63;;;;;;;;;;5046079;28;20200;-82
2022/09/29 03:47:09;;;;;;;0.60;0.60;;;;;;;;;;5052446;28;20190;-82
2022/09/29 03:49:37;;;;;;;0.60;0.60;;;;;;;;;;5052270;28;20205;-81
2022/09/29 03:52:06;;;;;;;0.60;0.60;;;;;;;;;;5058055;28;20194;-81
2022/09/29 03:54:34;;;;;;;0.60;0.60;;;;;;;;;;5051869;28;20266;-81
2022/09/29 03:57:04;;;;;;;1.20;1.20;;;;;;;;;;5068721;28;20210;-81
2022/09/29 03:59:32;;;;;;;2.23;2.17;;;;;;;;;;5051044;28;20199;-81
2022/09/29 04:02:01;;;;;;;1.07;1.07;;;;;;;;;;5041836;28;20222;-81
2022/09/29 04:04:30;;;;;;;2.00;1.90;;;;;;;;;;5067805;28;20210;-81
2022/09/29 04:06:58;;;;;;;0.60;0.60;;;;;;;;;;5042844;28;20289;-81
2022/09/29 04:09:26;;;;;;;0.80;0.80;;;;;;;;;;5039845;28;20206;-81
2022/09/29 04:11:55;;;;;;;0.70;0.70;;;;;;;;;;5043472;28;20199;-81
2022/09/29 04:14:25;;;;;;;1.00;1.00;;;;;;;;;;5037421;28;20260;-81
2022/09/29 04:16:53;;;;;;;0.70;0.70;;;;;;;;;;5052995;28;20239;-81
2022/09/29 04:19:22;;;;;;;0.70;0.70;;;;;;;;;;5035362;28;20238;-81
2022/09/29 04:21:50;;;;;;;0.60;0.60;;;;;;;;;;5050023;28;20220;-81
2022/09/29 04:24:18;;;;;;;0.80;0.80;;;;;;;;;;5032862;28;20219;-81
2022/09/29 04:26:47;;;;;;;2.93;2.73;;;;;;;;;;5034112;28;20345;-81
2022/09/29 04:29:15;;;;;;;0.70;0.70;;;;;;;;;;5052608;28;20199;-81
2022/09/29 04:31:46;;;;;;;0.80;0.77;;;;;;;;;;5069587;28;20207;-81
2022/09/29 04:34:15;;;;;;;3.87;2.87;;;;;;;;;;5020366;28;20191;-80
2022/09/29 04:36:46;;;;;;;1.67;1.67;;;;;;;;;;5032376;28;20196;-81
2022/09/29 04:39:14;;;;;;;0.77;0.77;;;;;;;;;;5040160;28;20203;-81
2022/09/29 04:41:43;;;;;;;0.70;0.70;;;;;;;;;;5051973;28;20213;-81
2022/09/29 04:44:12;;;;;;;1.03;1.03;;;;;;;;;;5032736;28;20232;-81
2022/09/29 04:46:40;;;;;;;0.87;0.87;;;;;;;;;;5049492;28;20236;-81
2022/09/29 04:49:10;;;;;;;2.73;2.60;;;;;;;;;;5041915;28;20229;-80
2022/09/29 04:51:38;;;;;;;0.60;0.60;;;;;;;;;;5052240;28;20198;-81
2022/09/29 04:54:07;;;;;;;0.80;0.80;;;;;;;;;;5052339;28;20222;-81
2022/09/29 04:56:35;;;;;;;1.77;1.67;;;;;;;;;;5049365;28;20258;-81
2022/09/29 04:59:03;;;;;;;1.47;1.47;;;;;;;;;;5043392;28;20217;-81
2022/09/29 05:01:32;;;;;;;0.70;0.70;;;;;;;;;;5051779;28;20230;-81
2022/09/29 05:04:00;;;;;;;0.70;0.70;;;;;;;;;;5051841;28;20214;-81
2022/09/29 05:06:30;;;;;;;2.13;2.03;;;;;;;;;;5058950;28;20196;-80
2022/09/29 05:08:58;;;;;;;0.83;0.83;;;;;;;;;;5041361;28;20230;-81
2022/09/29 05:11:27;;;;;;;1.37;1.37;;;;;;;;;;5051192;28;20285;-81
2022/09/29 05:13:55;;;;;;;1.20;1.20;;;;;;;;;;5052825;28;20198;-81
2022/09/29 05:16:23;;;;;;;2.37;2.17;;;;;;;;;;5052009;28;20202;-81
2022/09/29 05:18:52;;;;;;;1.10;1.10;;;;;;;;;;5055250;28;20207;-81
2022/09/29 05:21:20;;;;;;;1.33;1.33;;;;;;;;;;5068938;28;20198;-81
2022/09/29 05:23:58;;;;;;;0.70;0.70;;;;;;;;;;5037076;28;20218;-81
2022/09/29 05:26:27;;;;;;;0.60;0.60;;;;;;;;;;5032130;28;20242;-81
2022/09/29 05:28:55;;;;;;;0.67;0.67;;;;;;;;;;5032482;28;20225;-81
2022/09/29 05:31:23;;;;;;;0.70;0.70;;;;;;;;;;5043347;28;20198;-81
2022/09/29 05:33:52;;;;;;;1.03;1.03;;;;;;;;;;5035431;28;20225;-81
2022/09/29 05:36:21;;;;;;;2.30;2.10;;;;;;;;;;5043042;28;20227;-82
2022/09/29 05:38:49;;;;;;;2.57;2.47;;;;;;;;;;5067634;28;20301;-82
2022/09/29 05:41:21;;;;;;;0.90;0.90;;;;;;;;;;5052468;28;20195;-81
2022/09/29 05:43:50;;;;;;;1.00;1.00;;;;;;;;;;5038850;28;20272;-82
2022/09/29 05:46:18;;;;;;;2.00;1.90;;;;;;;;;;5068535;28;20197;-79
2022/09/29 05:48:46;;;;;;;2.03;1.83;;;;;;;;;;5052867;28;20252;-80
2022/09/29 05:51:16;;;;;;;1.07;1.07;;;;;;;;;;5056070;28;20212;-80
2022/09/29 05:53:50;;;;;;;3.23;1.83;;;;;;;;;;5033804;28;20198;-80
2022/09/29 05:56:21;;;;;;;0.93;0.93;;;;;;;;;;5053069;28;20227;-78
2022/09/29 05:58:49;;;;;;;1.13;1.13;;;;;;;;;;5045937;28;20233;-78
2022/09/29 06:01:18;;;;;;;0.90;0.90;;;;;;;;;;5052349;28;20218;-78
2022/09/29 06:03:47;;;;;;;1.00;1.00;;;;;;;;;;5035884;28;20222;-78
2022/09/29 06:06:16;;;;;;;0.73;0.73;;;;;;;;;;5037184;28;20230;-79
2022/09/29 06:08:45;;;;;;;3.23;3.03;;;;;;;;;;5047224;28;20288;-78
2022/09/29 06:11:15;;;;;;;1.67;1.67;;;;;;;;;;5071531;28;20296;-78
2022/09/29 06:13:45;;;;;;;1.97;1.83;;;;;;;;;;5060791;28;20199;-78
2022/09/29 06:16:14;;;;;;;0.93;0.93;;;;;;;;;;5018621;28;20227;-79
2022/09/29 06:18:43;;;;;;;1.20;1.20;;;;;;;;;;5044764;28;20264;-78
2022/09/29 06:21:12;;;;;;;0.90;0.90;;;;;;;;;;5054953;28;20260;-79
2022/09/29 06:23:41;;;;;;;1.00;1.00;;;;;;;;;;5042707;28;20238;-80
2022/09/29 06:26:10;;;;;;;1.57;1.47;;;;;;;;;;5029370;28;20257;-78
2022/09/29 06:28:38;;;;;;;1.53;1.43;;;;;;;;;;5055171;28;20209;-78
2022/09/29 06:31:09;;;;;;;3.17;2.07;;;;;;;;;;5059162;28;20255;-78
2022/09/29 06:33:38;;;;;;;2.50;2.40;;;;;;;;;;5028204;28;20227;-78
2022/09/29 06:38:56;;;;;;;1.13;1.13;;;;;;;;;;5039199;28;20301;-78
2022/09/29 06:41:25;;;;;;;1.77;1.67;;;;;;;;;;5044027;28;20253;-78
2022/09/29 06:43:54;;;;;;;2.10;2.10;;;;;;;;;;5053953;28;20218;-79
2022/09/29 06:46:25;;;;;;;0.90;0.90;;;;;;;;;;5055248;28;20216;-79
2022/09/29 06:48:54;;;;;;;0.60;0.60;;;;;;;;;;5023403;28;20241;-81
2022/09/29 06:51:25;;;;;;;1.10;1.10;;;;;;;;;;5022150;28;20208;-80
2022/09/29 06:54:08;;;;;;;3.47;3.27;;;;;;;;;;5024685;28;20193;-83
2022/09/29 06:56:49;;;;;;;9.00;6.90;;;;;;;;;;5032900;28;20281;-81
2022/09/29 06:59:18;;;;;;;1.23;1.17;;;;;;;;;;5018911;28;20208;-80
2022/09/29 07:01:48;;;;;;;3.70;3.40;;;;;;;;;;5031750;28;20318;-79
2022/09/29 07:04:19;;;;;;;9.97;6.97;;;;;;;;;;5029905;28;20205;-79
2022/09/29 07:06:48;;;;;;;14.00;11.07;;;;;;;;;;5023752;28;20191;-80
2022/09/29 07:09:16;;;;;;;4.40;4.00;;;;;;;;;;5021007;28;20192;-79
2022/09/29 07:11:45;;;;;;;14.47;12.23;;;;;;;;;;5017918;28;20205;-79
2022/09/29 07:14:14;;;;;;;15.57;9.90;;;;;;;;;;5024252;28;20219;-79
2022/09/29 07:16:43;;;;;;;21.43;12.37;;;;;;;;;;5022935;28;20215;-81
2022/09/29 07:19:12;;;;;;;18.33;13.80;;;;;;;;;;5021596;28;20210;-79
2022/09/29 07:21:41;;;;;;;16.50;12.77;;;;;;;;;;5042342;28;20212;-79
2022/09/29 07:24:10;;;;;;;13.37;10.80;;;;;;;;;;5023506;28;20307;-81
2022/09/29 07:26:38;;;;;;;23.97;15.50;;;;;;;;;;5021394;28;20240;-79
2022/09/29 07:29:08;;;;;;;15.27;11.30;;;;;;;;;;5019729;28;20205;-79
2022/09/29 07:31:43;;;;;;;20.30;11.70;;;;;;;;;;5024274;28;20207;-79
2022/09/29 07:34:21;;;;;;;6.53;5.87;;;;;;;;;;5045134;28;20207;-79
2022/09/29 07:36:49;;;;;;;28.13;18.73;;;;;;;;;;5051425;28;20212;-79
2022/09/29 07:39:18;;;;;;;17.93;13.93;;;;;;;;;;5040137;28;20283;-80
2022/09/29 07:41:46;;;;;;;49.13;20.20;;;;;;;;;;5029793;28;20211;-80
2022/09/29 07:44:15;;;;;;;23.93;16.60;;;;;;;;;;5068140;28;20245;-79
2022/09/29 07:46:44;;;;;;;39.27;24.57;;;;;;;;;;5022830;28;20211;-80
2022/09/29 07:49:12;;;;;;;7.00;6.40;;;;;;;;;;5015030;28;20203;-79
2022/09/29 07:51:42;;;;;;;32.73;17.43;;;;;;;;;;5037970;28;20206;-79
2022/09/29 07:54:11;;;;;;;43.67;23.20;;;;;;;;;;5040264;28;20203;-79
2022/09/29 07:56:39;;;;;;;17.97;9.77;;;;;;;;;;5016037;28;20204;-79
2022/09/29 07:59:08;;;;;;;6.83;5.57;;;;;;;;;;5025731;28;20215;-80
2022/09/29 08:01:36;;;;;;;14.60;9.77;;;;;;;;;;5017982;28;20221;-80
2022/09/29 08:04:05;;;;;;;0.50;0.50;;;;;;;;;;5033463;28;20203;-81
2022/09/29 08:06:33;;;;;;;14.63;11.47;;;;;;;;;;5036533;28;20196;-80
2022/09/29 08:09:03;;;;;;;5.00;4.60;;;;;;;;;;5039796;28;20204;-79
2022/09/29 08:11:34;;;;;;;8.33;4.53;;;;;;;;;;5041302;28;20205;-80
2022/09/29 08:14:02;;;;;;;6.27;5.73;;;;;;;;;;5019427;28;20214;-80
2022/09/29 08:16:31;;;;;;;4.33;4.10;;;;;;;;;;5016113;28;20292;-80
2022/09/29 08:19:00;;;;;;;17.20;13.90;;;;;;;;;;5032110;28;20303;-79
2022/09/29 08:21:28;;;;;;;6.20;4.87;;;;;;;;;;5031500;28;20212;-80
2022/09/29 08:23:57;;;;;;;19.37;15.47;;;;;;;;;;5019817;28;20207;-80
2022/09/29 08:26:27;;;;;;;2.87;2.77;;;;;;;;;;5013746;28;20229;-79
2022/09/29 08:29:08;;;;;;;7.73;5.73;;;;;;;;;;5024428;28;20263;-80
2022/09/29 08:31:42;;;;;;;12.27;10.13;;;;;;;;;;5027134;28;20205;-79
2022/09/29 08:34:12;;;;;;;0.63;0.63;;;;;;;;;;5020330;28;20207;-80
2022/09/29 08:36:46;;;;;;;3.10;2.83;;;;;;;;;;5023696;28;20254;-80
2022/09/29 08:39:15;;;;;;;0.80;0.80;;;;;;;;;;5042788;28;20234;-81
2022/09/29 08:41:58;;;;;;;2.20;2.10;;;;;;;;;;5028789;28;20203;-83
2022/09/29 08:44:30;;;;;;;1.13;1.13;;;;;;;;;;5024627;28;20206;-79
2022/09/29 08:47:12;;;;;;;3.53;1.87;;;;;;;;;;5018701;28;20237;-79
2022/09/29 08:49:43;;;;;;;9.60;8.00;;;;;;;;;;5019126;28;20248;-79
2022/09/29 08:52:13;;;;;;;0.80;0.80;;;;;;;;;;5026084;28;20217;-79
2022/09/29 08:54:46;;;;;;;7.50;6.67;;;;;;;;;;5017125;28;20227;-79
2022/09/29 08:57:19;;;;;;;6.57;5.40;;;;;;;;;;5035851;28;20212;-80
2022/09/29 08:59:53;;;;;;;2.23;2.13;;;;;;;;;;5029055;28;20221;-81
2022/09/29 09:02:31;;;;;;;8.77;7.87;;;;;;;;;;5038252;28;20272;-79
2022/09/29 09:05:13;;;;;;;13.33;11.07;;;;;;;;;;5019597;28;20226;-79
2022/09/29 09:07:47;;;;;;;4.73;4.27;;;;;;;;;;5022431;28;20207;-79
2022/09/29 09:10:20;;;;;;;12.17;10.90;;;;;;;;;;5016581;28;20203;-79
2022/09/29 09:13:07;;;;;;;11.83;7.37;;;;;;;;;;5027654;28;20206;-79
2022/09/29 09:15:47;;;;;;;10.63;8.27;;;;;;;;;;5011520;28;20269;-80
2022/09/29 09:18:30;;;;;;;2.73;2.63;;;;;;;;;;5040208;28;20229;-79
2022/09/29 09:21:03;;;;;;;1.10;1.10;;;;;;;;;;5045535;28;20272;-79
2022/09/29 09:23:35;;;;;;;0.70;0.70;;;;;;;;;;5027665;28;20295;-81
2022/09/29 09:26:04;;;;;;;4.30;2.70;;;;;;;;;;5019519;28;20303;-80
2022/09/29 09:28:34;;;;;;;6.97;6.23;;;;;;;;;;5016783;28;20199;-79
2022/09/29 09:31:07;;;;;;;4.13;2.87;;;;;;;;;;5040270;28;20211;-79
2022/09/29 09:33:38;;;;;;;8.70;6.73;;;;;;;;;;5015644;28;20215;-80
2022/09/29 09:36:09;;;;;;;3.77;3.30;;;;;;;;;;5017689;28;20196;-79
2022/09/29 09:38:41;;;;;;;8.27;6.37;;;;;;;;;;5034365;28;20265;-79
2022/09/29 09:41:10;;;;;;;12.00;8.13;;;;;;;;;;5022867;28;20207;-79
2022/09/29 09:43:44;;;;;;;10.07;4.37;;;;;;;;;;5018517;28;20239;-79
2022/09/29 09:46:17;;;;;;;3.17;2.80;;;;;;;;;;5017407;28;20208;-79
2022/09/29 09:48:47;;;;;;;8.17;5.17;;;;;;;;;;5039442;28;20302;-79
2022/09/29 09:51:34;;;;;;;1.83;1.73;;;;;;;;;;5035414;28;20199;-79
2022/09/29 09:54:05;;;;;;;4.17;3.07;;;;;;;;;;5018023;28;20225;-80
2022/09/29 09:56:42;;;;;;;0.50;0.50;;;;;;;;;;5016378;28;20204;-79
2022/09/29 09:59:16;;;;;;;6.03;5.00;;;;;;;;;;5021208;28;20200;-79
2022/09/29 10:01:46;;;;;;;2.27;1.63;;;;;;;;;;5017476;28;20227;-79
2022/09/29 10:04:15;;;;;;;7.60;5.70;;;;;;;;;;5015532;28;20204;-79
2022/09/29 10:06:43;;;;;;;0.93;0.93;;;;;;;;;;5019447;28;20223;-79
2022/09/29 10:09:14;;;;;;;0.73;0.73;;;;;;;;;;5016784;28;20266;-79
2022/09/29 10:11:52;;;;;;;0.83;0.83;;;;;;;;;;5021994;28;20222;-79
2022/09/29 10:14:29;;;;;;;3.47;2.70;;;;;;;;;;5021839;28;20301;-79
2022/09/29 10:17:01;;;;;;;5.73;4.30;;;;;;;;;;5020071;28;20204;-79
2022/09/29 10:19:44;;;;;;;3.77;3.07;;;;;;;;;;5019659;28;20203;-79
2022/09/29 10:22:14;;;;;;;5.67;3.80;;;;;;;;;;5019146;28;20237;-79
2022/09/29 10:24:45;;;;;;;0.83;0.83;;;;;;;;;;5028917;28;20207;-80
2022/09/29 10:27:20;;;;;;;1.10;1.00;;;;;;;;;;5032197;28;20236;-80
2022/09/29 10:29:51;;;;;;;0.77;0.77;;;;;;;;;;5034089;28;20209;-80
2022/09/29 10:32:35;;;;;;;1.10;0.50;;;;;;;;;;5020740;28;20223;-81
2022/09/29 10:35:06;;;;;;;0.60;0.60;;;;;;;;;;5033529;28;20229;-80
2022/09/29 10:37:36;;;;;;;0.30;0.30;;;;;;;;;;5035403;28;20221;-81
2022/09/29 10:40:16;;;;;;;0.30;0.30;;;;;;;;;;5060606;28;20215;-78
2022/09/29 10:42:47;;;;;;;1.77;1.50;;;;;;;;;;5025702;28;20205;-80
2022/09/29 10:45:17;;;;;;;0.40;0.40;;;;;;;;;;5046541;28;20205;-80
2022/09/29 10:47:50;;;;;;;1.23;1.13;;;;;;;;;;5023593;28;20215;-78
2022/09/29 10:50:20;;;;;;;0.83;0.83;;;;;;;;;;5031766;28;20609;-79
2022/09/29 10:52:51;;;;;;;0.30;0.30;;;;;;;;;;5036791;28;20194;-80
2022/09/29 10:55:21;;;;;;;2.37;2.17;;;;;;;;;;5061246;28;20221;-79
2022/09/29 10:57:52;;;;;;;2.13;1.23;;;;;;;;;;5025463;28;20210;-80
2022/09/29 11:00:28;;;;;;;0.60;0.60;;;;;;;;;;5019425;28;20200;-79
2022/09/29 11:03:03;;;;;;;0.30;0.30;;;;;;;;;;5029908;28;20279;-81
2022/09/29 11:05:31;;;;;;;4.07;2.73;;;;;;;;;;5037340;28;20214;-81
2022/09/29 11:08:01;;;;;;;0.40;0.40;;;;;;;;;;5034742;28;20253;-81
2022/09/29 11:10:31;;;;;;;0.40;0.40;;;;;;;;;;5036053;28;20211;-81
2022/09/29 11:13:07;;;;;;;1.33;1.23;;;;;;;;;;5041660;28;20370;-81
2022/09/29 11:15:40;;;;;;;0.50;0.50;;;;;;;;;;5038186;28;20199;-81
2022/09/29 11:18:20;;;;;;;0.83;0.83;;;;;;;;;;5034072;28;20588;-81
2022/09/29 11:20:53;;;;;;;0.60;0.60;;;;;;;;;;5042349;28;20208;-82
2022/09/29 11:23:26;;;;;;;0.30;0.30;;;;;;;;;;5043073;28;20197;-81
2022/09/29 11:26:01;;;;;;;0.30;0.30;;;;;;;;;;5018333;28;20308;-81
2022/09/29 11:28:38;;;;;;;0.73;0.73;;;;;;;;;;5027689;28;20301;-80
2022/09/29 11:31:17;;;;;;;0.47;0.47;;;;;;;;;;5021189;28;20203;-80
2022/09/29 11:33:52;;;;;;;0.43;0.43;;;;;;;;;;5022653;28;20210;-80
2022/09/29 11:36:23;;;;;;;0.63;0.63;;;;;;;;;;5032024;28;20193;-81
2022/09/29 11:38:56;;;;;;;0.87;0.87;;;;;;;;;;5019486;28;20193;-81
2022/09/29 11:41:34;;;;;;;0.40;0.40;;;;;;;;;;5017637;28;20204;-81
2022/09/29 11:44:08;;;;;;;5.00;1.23;;;;;;;;;;5020281;28;20209;-80
2022/09/29 11:46:48;;;;;;;0.30;0.30;;;;;;;;;;5021663;28;20222;-81
2022/09/29 11:49:26;;;;;;;0.63;0.63;;;;;;;;;;5016718;28;20206;-80
2022/09/29 11:52:05;;;;;;;0.93;0.70;;;;;;;;;;5037616;28;20217;-82
2022/09/29 11:54:40;;;;;;;0.50;0.50;;;;;;;;;;5025901;28;20211;-82
2022/09/29 11:57:11;;;;;;;0.67;0.67;;;;;;;;;;5018845;28;20229;-82
2022/09/29 11:59:56;;;;;;;0.50;0.50;;;;;;;;;;5028540;28;20244;-82
2022/09/29 12:02:40;;;;;;;0.40;0.40;;;;;;;;;;5022325;28;20229;-81
2022/09/29 12:05:14;;;;;;;0.50;0.50;;;;;;;;;;5014097;28;20201;-82
2022/09/29 12:07:45;;;;;;;0.97;0.90;;;;;;;;;;5027730;28;20212;-81
2022/09/29 12:10:23;;;;;;;0.70;0.70;;;;;;;;;;5024106;28;20209;-81
2022/09/29 12:12:56;;;;;;;1.03;0.93;;;;;;;;;;5026614;28;20268;-81
2022/09/29 12:15:28;;;;;;;0.63;0.63;;;;;;;;;;5029049;28;20204;-82
2022/09/29 12:18:00;;;;;;;1.30;1.20;;;;;;;;;;5019355;28;20201;-81
2022/09/29 12:20:32;;;;;;;0.70;0.60;;;;;;;;;;5028541;28;20232;-82
2022/09/29 12:23:04;;;;;;;0.70;0.70;;;;;;;;;;5016351;28;20217;-81
2022/09/29 12:25:35;;;;;;;1.37;0.80;;;;;;;;;;5020469;28;20213;-81
2022/09/29 12:28:06;;;;;;;0.60;0.60;;;;;;;;;;5035681;28;20266;-81
2022/09/29 12:30:38;;;;;;;0.40;0.40;;;;;;;;;;5028779;28;20202;-82
2022/09/29 12:33:10;;;;;;;0.40;0.40;;;;;;;;;;5029853;28;20210;-83
2022/09/29 12:35:43;;;;;;;0.43;0.43;;;;;;;;;;5034476;28;20216;-85
2022/09/29 12:38:16;;;;;;;0.40;0.40;;;;;;;;;;5035963;28;20207;-84
2022/09/29 12:40:47;;;;;;;0.40;0.40;;;;;;;;;;5021741;28;20206;-84
2022/09/29 12:43:21;;;;;;;0.30;0.30;;;;;;;;;;5041469;28;20212;-83
2022/09/29 12:45:56;;;;;;;0.50;0.50;;;;;;;;;;5059681;28;20212;-83
2022/09/29 12:48:30;;;;;;;0.70;0.70;;;;;;;;;;5042996;28;20215;-83
2022/09/29 12:51:01;;;;;;;0.30;0.30;;;;;;;;;;5061361;28;20204;-83
2022/09/29 12:53:33;;;;;;;0.80;0.80;;;;;;;;;;5068881;28;20202;-83
2022/09/29 12:56:03;;;;;;;1.07;1.07;;;;;;;;;;5048608;28;20195;-84
2022/09/29 12:58:34;;;;;;;0.60;0.60;;;;;;;;;;5042288;28;20202;-83
2022/09/29 13:01:10;;;;;;;0.50;0.50;;;;;;;;;;5054964;28;20229;-83
2022/09/29 13:03:52;;;;;;;0.50;0.50;;;;;;;;;;5033171;28;20276;-83
2022/09/29 13:06:51;;;;;;;0.30;0.30;;;;;;;;;;5028678;28;20204;-83
2022/09/29 13:09:35;;;;;;;0.90;0.90;;;;;;;;;;5040909;28;20220;-83
2022/09/29 13:12:15;;;;;;;1.97;1.53;;;;;;;;;;5043297;28;20229;-83
2022/09/29 13:14:52;;;;;;;0.67;0.67;;;;;;;;;;5042413;28;20213;-83
2022/09/29 13:17:35;;;;;;;0.30;0.30;;;;;;;;;;5067369;28;20208;-83
2022/09/29 13:20:29;;;;;;;0.30;0.30;;;;;;;;;;5030136;28;20213;-83
2022/09/29 13:23:10;;;;;;;0.40;0.40;;;;;;;;;;5013557;28;20218;-83
2022/09/29 13:25:45;;;;;;;1.03;0.80;;;;;;;;;;5043092;28;20221;-83
2022/09/29 13:28:20;;;;;;;0.70;0.70;;;;;;;;;;5051230;28;20240;-83
2022/09/29 13:30:49;;;;;;;0.30;0.30;;;;;;;;;;5040860;28;20199;-83
2022/09/29 13:33:20;;;;;;;0.30;0.30;;;;;;;;;;5025930;28;20209;-83
2022/09/29 13:35:49;;;;;;;0.40;0.40;;;;;;;;;;5045183;28;20207;-83
2022/09/29 13:38:20;;;;;;;0.53;0.53;;;;;;;;;;5033066;28;20202;-83
2022/09/29 13:41:07;;;;;;;0.60;0.60;;;;;;;;;;5040234;28;20209;-83
2022/09/29 13:43:40;;;;;;;0.97;0.97;;;;;;;;;;5055023;28;20196;-83
2022/09/29 13:46:23;;;;;;;1.40;0.50;;;;;;;;;;5068416;28;20198;-83
2022/09/29 13:48:54;;;;;;;1.57;0.93;;;;;;;;;;5020101;28;20228;-83
2022/09/29 13:51:23;;;;;;;0.40;0.40;;;;;;;;;;5033402;28;20604;-83
2022/09/29 13:54:07;;;;;;;0.37;0.37;;;;;;;;;;5059988;28;20199;-83
2022/09/29 13:56:37;;;;;;;0.30;0.30;;;;;;;;;;5049316;28;20209;-83
2022/09/29 13:59:14;;;;;;;0.67;0.67;;;;;;;;;;5066925;28;20202;-83
2022/09/29 14:01:43;;;;;;;0.40;0.40;;;;;;;;;;5068064;28;20221;-83
2022/09/29 14:04:33;;;;;;;0.37;0.37;;;;;;;;;;5042773;28;20214;-83
2022/09/29 14:07:06;;;;;;;0.30;0.30;;;;;;;;;;5028483;28;20213;-83
2022/09/29 14:09:37;;;;;;;0.87;0.87;;;;;;;;;;5069192;28;20236;-83
2022/09/29 14:12:08;;;;;;;0.40;0.40;;;;;;;;;;5072843;28;20204;-83
2022/09/29 14:14:38;;;;;;;0.40;0.40;;;;;;;;;;5031551;28;20202;-84
2022/09/29 14:17:12;;;;;;;0.30;0.30;;;;;;;;;;5028894;28;20247;-83
2022/09/29 14:19:47;;;;;;;0.40;0.40;;;;;;;;;;5042676;28;20296;-83
2022/09/29 14:22:34;;;;;;;0.43;0.43;;;;;;;;;;5054914;28;20205;-83
2022/09/29 14:25:17;;;;;;;1.20;1.10;;;;;;;;;;5060607;28;20236;-83
2022/09/29 14:27:50;;;;;;;0.40;0.40;;;;;;;;;;5034924;28;20252;-83
2022/09/29 14:30:20;;;;;;;0.80;0.80;;;;;;;;;;5048288;28;20212;-83
2022/09/29 14:32:52;;;;;;;2.30;0.60;;;;;;;;;;5044209;28;20205;-83
2022/09/29 14:35:25;;;;;;;0.43;0.43;;;;;;;;;;5070606;28;20213;-83
2022/09/29 14:37:59;;;;;;;0.40;0.40;;;;;;;;;;5061907;28;20205;-83
2022/09/29 14:40:30;;;;;;;0.70;0.70;;;;;;;;;;5052067;28;20201;-83
2022/09/29 14:43:20;;;;;;;1.10;1.00;;;;;;;;;;5071218;28;20209;-83
2022/09/29 14:51:58;;;;;;;0.40;0.40;;;;;;;;;;5054418;28;20205;-84
2022/09/29 14:54:30;;;;;;;0.37;0.37;;;;;;;;;;5071380;28;20211;-83
2022/09/29 14:57:06;;;;;;;0.50;0.50;;;;;;;;;;5023030;28;20205;-84
2022/09/29 14:59:41;;;;;;;0.43;0.43;;;;;;;;;;5047655;28;20228;-84
2022/09/29 15:02:18;;;;;;;0.30;0.30;;;;;;;;;;5035334;28;20225;-85
2022/09/29 15:04:48;;;;;;;0.47;0.47;;;;;;;;;;5039105;28;20243;-84
2022/09/29 15:07:19;;;;;;;0.60;0.60;;;;;;;;;;5071528;28;20203;-84
2022/09/29 15:09:50;;;;;;;0.40;0.40;;;;;;;;;;5046983;28;20265;-85
2022/09/29 15:12:21;;;;;;;0.50;0.50;;;;;;;;;;5027901;28;20227;-84
2022/09/29 15:14:50;;;;;;;0.57;0.57;;;;;;;;;;5038369;28;20205;-84
2022/09/29 15:17:28;;;;;;;0.60;0.60;;;;;;;;;;5034828;28;20296;-84